sensor_id;sensor_type;location;lat;lon;timestamp;pressure;altitude;pressure_sealevel;temperature;humidity
63663;BME280;49815;51.618;0.336;2022-09-13T00:02:00;100323.38;;;21.58;43.98
63663;BME280;49815;51.618;0.336;2022-09-13T00:04:25;100319.20;;;21.79;44.06
63663;BME280;49815;51.618;0.336;2022-09-13T00:06:50;100317.64;;;21.80;44.07
63663;BME280;49815;51.618;0.336;2022-09-13T00:09:16;100315.24;;;21.80;43.91
63663;BME280;49815;51.618;0.336;2022-09-13T00:11:41;100316.36;;;21.82;44.03
63663;BME280;49815;51.618;0.336;2022-09-13T00:14:06;100317.88;;;21.79;43.27
63663;BME280;49815;51.618;0.336;2022-09-13T00:16:32;100315.57;;;21.11;43.27
63663;BME280;49815;51.618;0.336;2022-09-13T00:18:58;100310.94;;;21.45;43.56
63663;BME280;49815;51.618;0.336;2022-09-13T00:21:23;100315.13;;;19.13;48.07
63663;BME280;49815;51.618;0.336;2022-09-13T00:23:50;100306.91;;;20.14;46.60
63663;BME280;49815;51.618;0.336;2022-09-13T00:26:15;100304.43;;;20.58;46.10
63663;BME280;49815;51.618;0.336;2022-09-13T00:28:39;100315.06;;;18.46;50.48
63663;BME280;49815;51.618;0.336;2022-09-13T00:31:06;100316.88;;;18.46;51.35
63663;BME280;49815;51.618;0.336;2022-09-13T00:33:29;100322.77;;;18.61;50.91
63663;BME280;49815;51.618;0.336;2022-09-13T00:35:55;100322.83;;;19.38;49.74
63663;BME280;49815;51.618;0.336;2022-09-13T00:38:20;100323.04;;;19.54;49.17
63663;BME280;49815;51.618;0.336;2022-09-13T00:40:45;100324.95;;;20.46;47.30
63663;BME280;49815;51.618;0.336;2022-09-13T00:43:17;100322.98;;;20.60;46.82
63663;BME280;49815;51.618;0.336;2022-09-13T00:45:37;100324.41;;;19.38;48.96
63663;BME280;49815;51.618;0.336;2022-09-13T00:48:05;100326.10;;;19.59;48.45
63663;BME280;49815;51.618;0.336;2022-09-13T00:50:30;100328.42;;;19.96;47.84
63663;BME280;49815;51.618;0.336;2022-09-13T00:52:56;100333.16;;;20.26;47.81
63663;BME280;49815;51.618;0.336;2022-09-13T00:55:20;100334.22;;;20.67;47.20
63663;BME280;49815;51.618;0.336;2022-09-13T00:57:42;100337.75;;;20.24;47.46
63663;BME280;49815;51.618;0.336;2022-09-13T01:00:10;100338.25;;;21.05;46.85
63663;BME280;49815;51.618;0.336;2022-09-13T01:02:33;100341.15;;;20.97;46.15
63663;BME280;49815;51.618;0.336;2022-09-13T01:04:58;100342.36;;;20.61;46.22
63663;BME280;49815;51.618;0.336;2022-09-13T01:07:23;100341.92;;;21.18;45.84
63663;BME280;49815;51.618;0.336;2022-09-13T01:09:49;100342.16;;;21.40;45.82
63663;BME280;49815;51.618;0.336;2022-09-13T01:12:18;100342.41;;;21.15;45.66
63663;BME280;49815;51.618;0.336;2022-09-13T01:14:39;100340.33;;;21.22;45.66
63663;BME280;49815;51.618;0.336;2022-09-13T01:17:04;100344.25;;;20.93;45.87
63663;BME280;49815;51.618;0.336;2022-09-13T01:19:29;100341.80;;;20.46;46.96
63663;BME280;49815;51.618;0.336;2022-09-13T01:26:59;100342.82;;;18.52;51.67
63663;BME280;49815;51.618;0.336;2022-09-13T01:29:22;100337.82;;;19.00;52.02
63663;BME280;49815;51.618;0.336;2022-09-13T01:31:41;100343.08;;;17.52;54.00
63663;BME280;49815;51.618;0.336;2022-09-13T01:34:10;100343.42;;;18.10;54.09
63663;BME280;49815;51.618;0.336;2022-09-13T01:36:40;100339.83;;;18.08;54.84
63663;BME280;49815;51.618;0.336;2022-09-13T01:38:56;100336.97;;;17.93;54.80
63663;BME280;49815;51.618;0.336;2022-09-13T01:41:31;100336.72;;;18.32;54.74
63663;BME280;49815;51.618;0.336;2022-09-13T01:43:50;100335.46;;;18.06;56.00
63663;BME280;49815;51.618;0.336;2022-09-13T01:46:10;100332.69;;;17.95;56.52
63663;BME280;49815;51.618;0.336;2022-09-13T01:48:41;100331.67;;;17.94;56.11
63663;BME280;49815;51.618;0.336;2022-09-13T01:51:01;100332.67;;;18.27;55.60
63663;BME280;49815;51.618;0.336;2022-09-13T01:53:30;100332.46;;;17.72;57.34
63663;BME280;49815;51.618;0.336;2022-09-13T01:55:51;100331.44;;;18.18;55.90
63663;BME280;49815;51.618;0.336;2022-09-13T01:58:19;100331.12;;;17.78;57.26
63663;BME280;49815;51.618;0.336;2022-09-13T02:00:44;100330.19;;;17.17;59.12
63663;BME280;49815;51.618;0.336;2022-09-13T02:03:06;100327.63;;;17.90;57.31
63663;BME280;49815;51.618;0.336;2022-09-13T02:05:32;100332.08;;;16.56;61.20
63663;BME280;49815;51.618;0.336;2022-09-13T02:07:58;100323.37;;;17.68;58.65
63663;BME280;49815;51.618;0.336;2022-09-13T02:10:24;100323.88;;;16.99;60.34
63663;BME280;49815;51.618;0.336;2022-09-13T02:12:48;100319.23;;;16.37;61.38
63663;BME280;49815;51.618;0.336;2022-09-13T02:15:14;100325.27;;;16.58;61.65
63663;BME280;49815;51.618;0.336;2022-09-13T02:17:38;100328.70;;;15.75;63.85
63663;BME280;49815;51.618;0.336;2022-09-13T02:20:07;100326.26;;;16.68;62.38
63663;BME280;49815;51.618;0.336;2022-09-13T02:22:31;100321.64;;;17.34;59.51
63663;BME280;49815;51.618;0.336;2022-09-13T02:24:57;100322.33;;;17.80;58.38
63663;BME280;49815;51.618;0.336;2022-09-13T02:27:23;100321.15;;;17.91;57.17
63663;BME280;49815;51.618;0.336;2022-09-13T02:29:48;100322.13;;;17.89;58.38
63663;BME280;49815;51.618;0.336;2022-09-13T02:32:14;100319.93;;;17.84;58.45
63663;BME280;49815;51.618;0.336;2022-09-13T02:34:38;100323.67;;;18.20;57.74
63663;BME280;49815;51.618;0.336;2022-09-13T02:37:02;100326.09;;;17.08;60.27
63663;BME280;49815;51.618;0.336;2022-09-13T02:39:28;100324.37;;;17.12;60.72
63663;BME280;49815;51.618;0.336;2022-09-13T02:41:55;100325.60;;;17.01;60.35
63663;BME280;49815;51.618;0.336;2022-09-13T02:44:21;100330.02;;;16.26;63.29
63663;BME280;49815;51.618;0.336;2022-09-13T02:46:56;100331.46;;;17.45;59.62
63663;BME280;49815;51.618;0.336;2022-09-13T02:49:12;100338.77;;;15.66;64.68
63663;BME280;49815;51.618;0.336;2022-09-13T02:51:40;100341.06;;;15.68;66.06
63663;BME280;49815;51.618;0.336;2022-09-13T02:54:08;100340.14;;;16.60;63.41
63663;BME280;49815;51.618;0.336;2022-09-13T02:56:29;100347.45;;;15.59;65.32
63663;BME280;49815;51.618;0.336;2022-09-13T02:58:53;100344.83;;;16.12;64.61
63663;BME280;49815;51.618;0.336;2022-09-13T03:01:15;100335.47;;;17.40;61.19
63663;BME280;49815;51.618;0.336;2022-09-13T03:03:40;100335.41;;;18.07;58.48
63663;BME280;49815;51.618;0.336;2022-09-13T03:06:06;100340.29;;;16.06;62.19
63663;BME280;49815;51.618;0.336;2022-09-13T03:08:32;100339.47;;;16.31;61.10
63663;BME280;49815;51.618;0.336;2022-09-13T03:11:05;100341.66;;;16.16;63.92
63663;BME280;49815;51.618;0.336;2022-09-13T03:13:34;100338.59;;;16.03;64.58
63663;BME280;49815;51.618;0.336;2022-09-13T03:15:58;100336.24;;;16.00;64.24
63663;BME280;49815;51.618;0.336;2022-09-13T03:18:24;100339.67;;;16.04;64.30
63663;BME280;49815;51.618;0.336;2022-09-13T03:20:44;100337.84;;;15.91;64.91
63663;BME280;49815;51.618;0.336;2022-09-13T03:25:47;100343.52;;;15.48;66.74
63663;BME280;49815;51.618;0.336;2022-09-13T03:28:02;100343.11;;;16.99;61.83
63663;BME280;49815;51.618;0.336;2022-09-13T03:30:21;100345.85;;;15.39;66.40
63663;BME280;49815;51.618;0.336;2022-09-13T03:32:50;100342.40;;;16.58;61.92
63663;BME280;49815;51.618;0.336;2022-09-13T03:35:17;100340.13;;;15.90;64.88
63663;BME280;49815;51.618;0.336;2022-09-13T03:37:44;100338.11;;;16.17;62.59
63663;BME280;49815;51.618;0.336;2022-09-13T03:40:07;100333.54;;;17.84;59.32
63663;BME280;49815;51.618;0.336;2022-09-13T03:42:32;100337.56;;;17.34;59.46
63663;BME280;49815;51.618;0.336;2022-09-13T03:44:55;100337.71;;;17.15;59.90
63663;BME280;49815;51.618;0.336;2022-09-13T03:47:18;100339.30;;;16.58;60.50
63663;BME280;49815;51.618;0.336;2022-09-13T03:49:43;100341.75;;;17.12;59.78
63663;BME280;49815;51.618;0.336;2022-09-13T03:52:10;100348.52;;;15.32;64.79
63663;BME280;49815;51.618;0.336;2022-09-13T03:54:36;100347.34;;;16.47;63.98
63663;BME280;49815;51.618;0.336;2022-09-13T03:57:07;100348.17;;;15.69;63.85
63663;BME280;49815;51.618;0.336;2022-09-13T03:59:25;100351.68;;;16.60;62.79
63663;BME280;49815;51.618;0.336;2022-09-13T04:01:51;100353.70;;;16.75;62.15
63663;BME280;49815;51.618;0.336;2022-09-13T04:04:16;100351.24;;;17.15;61.12
63663;BME280;49815;51.618;0.336;2022-09-13T04:06:41;100342.96;;;17.98;58.39
63663;BME280;49815;51.618;0.336;2022-09-13T04:09:07;100353.44;;;17.72;57.20
63663;BME280;49815;51.618;0.336;2022-09-13T04:11:32;100352.90;;;17.23;59.11
63663;BME280;49815;51.618;0.336;2022-09-13T04:13:58;100351.04;;;16.85;59.93
63663;BME280;49815;51.618;0.336;2022-09-13T04:16:23;100348.74;;;16.30;61.24
63663;BME280;49815;51.618;0.336;2022-09-13T04:18:49;100347.83;;;16.30;61.61
63663;BME280;49815;51.618;0.336;2022-09-13T04:21:14;100351.14;;;16.58;59.68
63663;BME280;49815;51.618;0.336;2022-09-13T04:23:40;100354.58;;;17.11;59.09
63663;BME280;49815;51.618;0.336;2022-09-13T04:26:05;100356.13;;;16.51;59.24
63663;BME280;49815;51.618;0.336;2022-09-13T04:28:30;100353.38;;;15.56;62.94
63663;BME280;49815;51.618;0.336;2022-09-13T04:30:55;100356.85;;;15.27;63.74
63663;BME280;49815;51.618;0.336;2022-09-13T04:33:21;100365.55;;;15.57;62.60
63663;BME280;49815;51.618;0.336;2022-09-13T04:35:46;100372.62;;;16.63;60.18
63663;BME280;49815;51.618;0.336;2022-09-13T04:38:12;100371.88;;;16.88;59.83
63663;BME280;49815;51.618;0.336;2022-09-13T04:40:37;100365.37;;;17.25;57.00
63663;BME280;49815;51.618;0.336;2022-09-13T04:43:03;100372.06;;;17.89;55.75
63663;BME280;49815;51.618;0.336;2022-09-13T04:45:28;100378.06;;;17.75;54.59
63663;BME280;49815;51.618;0.336;2022-09-13T04:47:54;100383.32;;;17.27;56.24
63663;BME280;49815;51.618;0.336;2022-09-13T04:50:18;100390.33;;;18.96;52.88
63663;BME280;49815;51.618;0.336;2022-09-13T04:52:43;100383.86;;;18.11;53.39
63663;BME280;49815;51.618;0.336;2022-09-13T04:55:09;100382.18;;;18.04;53.79
63663;BME280;49815;51.618;0.336;2022-09-13T04:57:34;100384.50;;;18.05;54.72
63663;BME280;49815;51.618;0.336;2022-09-13T04:59:59;100391.05;;;19.35;52.07
63663;BME280;49815;51.618;0.336;2022-09-13T05:02:24;100390.84;;;18.02;53.91
63663;BME280;49815;51.618;0.336;2022-09-13T05:04:50;100393.68;;;19.08;51.70
63663;BME280;49815;51.618;0.336;2022-09-13T05:07:16;100391.94;;;19.25;50.66
63663;BME280;49815;51.618;0.336;2022-09-13T05:09:40;100392.08;;;19.48;49.89
63663;BME280;49815;51.618;0.336;2022-09-13T05:12:06;100392.27;;;18.48;52.25
63663;BME280;49815;51.618;0.336;2022-09-13T05:14:31;100392.17;;;18.47;51.70
63663;BME280;49815;51.618;0.336;2022-09-13T05:16:56;100387.98;;;18.34;53.25
63663;BME280;49815;51.618;0.336;2022-09-13T05:19:21;100391.24;;;17.14;56.46
63663;BME280;49815;51.618;0.336;2022-09-13T05:21:46;100396.38;;;18.93;52.91
63663;BME280;49815;51.618;0.336;2022-09-13T05:24:12;100399.47;;;19.51;50.77
63663;BME280;49815;51.618;0.336;2022-09-13T05:26:37;100402.49;;;19.16;50.65
63663;BME280;49815;51.618;0.336;2022-09-13T05:29:03;100395.15;;;19.06;50.53
63663;BME280;49815;51.618;0.336;2022-09-13T05:31:30;100394.62;;;18.85;51.34
63663;BME280;49815;51.618;0.336;2022-09-13T05:33:55;100398.51;;;18.96;51.47
63663;BME280;49815;51.618;0.336;2022-09-13T05:36:18;100401.66;;;17.39;54.38
63663;BME280;49815;51.618;0.336;2022-09-13T05:38:44;100408.14;;;17.03;55.47
63663;BME280;49815;51.618;0.336;2022-09-13T05:41:09;100407.40;;;15.99;58.54
63663;BME280;49815;51.618;0.336;2022-09-13T05:43:35;100407.22;;;16.40;57.13
63663;BME280;49815;51.618;0.336;2022-09-13T05:46:02;100413.15;;;15.36;60.39
63663;BME280;49815;51.618;0.336;2022-09-13T05:48:28;100411.90;;;15.20;59.80
63663;BME280;49815;51.618;0.336;2022-09-13T05:50:52;100413.63;;;14.94;61.36
63663;BME280;49815;51.618;0.336;2022-09-13T05:53:17;100412.78;;;15.00;60.13
63663;BME280;49815;51.618;0.336;2022-09-13T05:55:43;100419.37;;;14.81;61.71
63663;BME280;49815;51.618;0.336;2022-09-13T05:58:09;100411.73;;;16.11;57.59
63663;BME280;49815;51.618;0.336;2022-09-13T06:00:34;100405.90;;;15.91;56.38
63663;BME280;49815;51.618;0.336;2022-09-13T06:02:59;100406.91;;;16.05;57.14
63663;BME280;49815;51.618;0.336;2022-09-13T06:05:24;100416.23;;;14.55;60.36
63663;BME280;49815;51.618;0.336;2022-09-13T06:07:49;100409.39;;;16.58;56.42
63663;BME280;49815;51.618;0.336;2022-09-13T06:10:15;100410.41;;;16.05;56.21
63663;BME280;49815;51.618;0.336;2022-09-13T06:12:40;100414.04;;;15.92;57.33
63663;BME280;49815;51.618;0.336;2022-09-13T06:15:06;100423.78;;;14.81;60.09
63663;BME280;49815;51.618;0.336;2022-09-13T06:17:31;100418.84;;;15.26;59.27
63663;BME280;49815;51.618;0.336;2022-09-13T06:19:56;100416.46;;;15.66;57.31
63663;BME280;49815;51.618;0.336;2022-09-13T06:22:21;100416.53;;;16.74;54.78
63663;BME280;49815;51.618;0.336;2022-09-13T06:24:47;100421.88;;;14.72;58.74
63663;BME280;49815;51.618;0.336;2022-09-13T06:27:12;100421.26;;;13.83;62.97
63663;BME280;49815;51.618;0.336;2022-09-13T06:29:38;100416.30;;;13.57;62.80
63663;BME280;49815;51.618;0.336;2022-09-13T06:32:04;100416.52;;;12.70;65.81
63663;BME280;49815;51.618;0.336;2022-09-13T06:34:29;100414.47;;;13.12;63.64
63663;BME280;49815;51.618;0.336;2022-09-13T06:36:54;100412.36;;;13.98;63.25
63663;BME280;49815;51.618;0.336;2022-09-13T06:39:19;100411.79;;;15.03;58.98
63663;BME280;49815;51.618;0.336;2022-09-13T06:41:45;100413.66;;;14.10;59.95
63663;BME280;49815;51.618;0.336;2022-09-13T06:44:10;100418.20;;;14.92;58.43
63663;BME280;49815;51.618;0.336;2022-09-13T06:46:36;100422.04;;;14.57;58.25
63663;BME280;49815;51.618;0.336;2022-09-13T06:49:03;100423.78;;;14.19;60.29
63663;BME280;49815;51.618;0.336;2022-09-13T06:51:27;100422.30;;;13.54;61.64
63663;BME280;49815;51.618;0.336;2022-09-13T06:53:53;100421.53;;;13.97;60.16
63663;BME280;49815;51.618;0.336;2022-09-13T06:56:18;100430.34;;;12.41;65.79
63663;BME280;49815;51.618;0.336;2022-09-13T06:58:43;100430.75;;;12.57;65.92
63663;BME280;49815;51.618;0.336;2022-09-13T07:01:09;100427.23;;;14.35;60.35
63663;BME280;49815;51.618;0.336;2022-09-13T07:03:32;100427.06;;;13.27;61.97
63663;BME280;49815;51.618;0.336;2022-09-13T07:05:58;100421.92;;;13.22;62.56
63663;BME280;49815;51.618;0.336;2022-09-13T07:08:24;100420.86;;;13.40;62.71
63663;BME280;49815;51.618;0.336;2022-09-13T07:10:49;100422.60;;;12.39;66.41
63663;BME280;49815;51.618;0.336;2022-09-13T07:13:15;100423.94;;;13.27;64.71
63663;BME280;49815;51.618;0.336;2022-09-13T07:15:40;100418.52;;;13.48;62.24
63663;BME280;49815;51.618;0.336;2022-09-13T07:18:06;100411.67;;;13.66;61.60
63663;BME280;49815;51.618;0.336;2022-09-13T07:20:31;100413.28;;;14.06;60.02
63663;BME280;49815;51.618;0.336;2022-09-13T07:22:57;100418.57;;;13.20;61.33
63663;BME280;49815;51.618;0.336;2022-09-13T07:25:22;100421.96;;;11.79;67.17
63663;BME280;49815;51.618;0.336;2022-09-13T07:27:49;100416.20;;;11.83;68.47
63663;BME280;49815;51.618;0.336;2022-09-13T07:30:14;100412.58;;;12.46;65.33
63663;BME280;49815;51.618;0.336;2022-09-13T07:32:39;100411.16;;;13.73;62.37
63663;BME280;49815;51.618;0.336;2022-09-13T07:35:04;100411.40;;;12.53;65.12
63663;BME280;49815;51.618;0.336;2022-09-13T07:37:29;100410.63;;;11.73;67.35
63663;BME280;49815;51.618;0.336;2022-09-13T07:39:54;100413.95;;;12.12;67.30
63663;BME280;49815;51.618;0.336;2022-09-13T07:42:20;100408.92;;;12.33;67.24
63663;BME280;49815;51.618;0.336;2022-09-13T07:44:45;100409.99;;;13.21;64.11
63663;BME280;49815;51.618;0.336;2022-09-13T07:47:10;100409.34;;;11.73;66.92
63663;BME280;49815;51.618;0.336;2022-09-13T07:49:36;100405.26;;;12.05;65.78
63663;BME280;49815;51.618;0.336;2022-09-13T07:52:02;100404.28;;;12.42;65.65
63663;BME280;49815;51.618;0.336;2022-09-13T07:54:27;100401.88;;;13.05;62.48
63663;BME280;49815;51.618;0.336;2022-09-13T07:56:53;100399.84;;;13.71;60.78
63663;BME280;49815;51.618;0.336;2022-09-13T07:59:18;100396.94;;;14.31;58.76
63663;BME280;49815;51.618;0.336;2022-09-13T08:01:45;100391.31;;;15.44;55.90
63663;BME280;49815;51.618;0.336;2022-09-13T08:04:11;100383.72;;;16.24;53.23
63663;BME280;49815;51.618;0.336;2022-09-13T08:06:36;100387.06;;;15.87;52.94
63663;BME280;49815;51.618;0.336;2022-09-13T08:09:00;100404.28;;;13.06;59.58
63663;BME280;49815;51.618;0.336;2022-09-13T08:11:29;100402.57;;;14.75;57.28
63663;BME280;49815;51.618;0.336;2022-09-13T08:13:51;100397.83;;;15.16;56.64
63663;BME280;49815;51.618;0.336;2022-09-13T08:16:18;100392.25;;;13.31;59.70
63663;BME280;49815;51.618;0.336;2022-09-13T08:18:43;100388.87;;;15.47;54.36
63663;BME280;49815;51.618;0.336;2022-09-13T08:21:07;100390.29;;;16.13;53.49
63663;BME280;49815;51.618;0.336;2022-09-13T08:23:32;100398.46;;;16.66;51.87
63663;BME280;49815;51.618;0.336;2022-09-13T08:26:00;100395.56;;;17.32;50.44
63663;BME280;49815;51.618;0.336;2022-09-13T08:28:23;100396.87;;;15.48;53.09
63663;BME280;49815;51.618;0.336;2022-09-13T08:30:49;100401.41;;;16.19;52.56
63663;BME280;49815;51.618;0.336;2022-09-13T08:33:14;100407.59;;;14.45;55.56
63663;BME280;49815;51.618;0.336;2022-09-13T08:35:39;100399.21;;;16.39;53.16
63663;BME280;49815;51.618;0.336;2022-09-13T08:38:05;100394.18;;;17.05;50.91
63663;BME280;49815;51.618;0.336;2022-09-13T08:40:32;100395.95;;;16.57;50.59
63663;BME280;49815;51.618;0.336;2022-09-13T08:43:01;100396.72;;;17.15;50.42
63663;BME280;49815;51.618;0.336;2022-09-13T08:45:20;100393.19;;;17.84;47.84
63663;BME280;49815;51.618;0.336;2022-09-13T08:47:49;100398.57;;;15.84;52.98
63663;BME280;49815;51.618;0.336;2022-09-13T08:50:14;100400.57;;;15.63;53.06
63663;BME280;49815;51.618;0.336;2022-09-13T08:52:45;100397.38;;;16.71;51.34
63663;BME280;49815;51.618;0.336;2022-09-13T08:55:18;100402.10;;;14.92;55.91
63663;BME280;49815;51.618;0.336;2022-09-13T08:57:32;100390.12;;;15.83;53.48
63663;BME280;49815;51.618;0.336;2022-09-13T08:59:59;100390.88;;;16.70;51.60
63663;BME280;49815;51.618;0.336;2022-09-13T09:02:26;100406.39;;;14.72;55.52
63663;BME280;49815;51.618;0.336;2022-09-13T09:04:46;100406.24;;;16.17;53.13
63663;BME280;49815;51.618;0.336;2022-09-13T09:07:12;100405.48;;;17.71;50.74
63663;BME280;49815;51.618;0.336;2022-09-13T09:09:35;100409.38;;;18.95;46.21
63663;BME280;49815;51.618;0.336;2022-09-13T09:12:04;100408.88;;;19.97;43.98
63663;BME280;49815;51.618;0.336;2022-09-13T09:14:27;100400.20;;;20.27;42.50
63663;BME280;49815;51.618;0.336;2022-09-13T09:16:51;100396.78;;;20.86;42.07
63663;BME280;49815;51.618;0.336;2022-09-13T09:19:20;100395.33;;;21.86;41.38
63663;BME280;49815;51.618;0.336;2022-09-13T09:21:38;100397.58;;;21.38;41.24
63663;BME280;49815;51.618;0.336;2022-09-13T09:24:03;100403.33;;;18.92;45.85
63663;BME280;49815;51.618;0.336;2022-09-13T09:26:29;100391.88;;;17.99;46.88
63663;BME280;49815;51.618;0.336;2022-09-13T09:28:55;100389.21;;;15.28;52.99
63663;BME280;49815;51.618;0.336;2022-09-13T09:31:25;100389.66;;;15.25;54.74
63663;BME280;49815;51.618;0.336;2022-09-13T09:33:55;100379.49;;;16.10;53.81
63663;BME280;49815;51.618;0.336;2022-09-13T09:36:16;100373.10;;;17.92;50.01
63663;BME280;49815;51.618;0.336;2022-09-13T09:38:38;100372.93;;;19.11;47.39
63663;BME280;49815;51.618;0.336;2022-09-13T09:41:04;100369.77;;;19.19;47.88
63663;BME280;49815;51.618;0.336;2022-09-13T09:43:29;100368.25;;;19.65;45.41
63663;BME280;49815;51.618;0.336;2022-09-13T09:45:51;100377.21;;;19.56;46.06
63663;BME280;49815;51.618;0.336;2022-09-13T09:48:18;100385.02;;;18.50;47.05
63663;BME280;49815;51.618;0.336;2022-09-13T09:50:46;100381.11;;;18.58;47.53
63663;BME280;49815;51.618;0.336;2022-09-13T09:53:07;100380.45;;;19.41;45.43
63663;BME280;49815;51.618;0.336;2022-09-13T09:55:34;100385.02;;;18.38;46.80
63663;BME280;49815;51.618;0.336;2022-09-13T09:57:58;100386.27;;;18.24;46.87
63663;BME280;49815;51.618;0.336;2022-09-13T10:00:24;100381.12;;;17.61;50.79
63663;BME280;49815;51.618;0.336;2022-09-13T10:02:48;100376.30;;;19.70;46.02
63663;BME280;49815;51.618;0.336;2022-09-13T10:05:13;100373.78;;;19.82;45.10
63663;BME280;49815;51.618;0.336;2022-09-13T10:07:37;100362.39;;;19.53;45.60
63663;BME280;49815;51.618;0.336;2022-09-13T10:10:05;100355.47;;;19.56;44.34
63663;BME280;49815;51.618;0.336;2022-09-13T10:12:30;100360.46;;;20.54;43.37
63663;BME280;49815;51.618;0.336;2022-09-13T10:15:04;100368.06;;;19.95;45.14
63663;BME280;49815;51.618;0.336;2022-09-13T10:17:20;100359.94;;;20.69;43.00
63663;BME280;49815;51.618;0.336;2022-09-13T10:19:52;100362.59;;;18.93;45.67
63663;BME280;49815;51.618;0.336;2022-09-13T10:22:11;100350.96;;;20.03;44.35
63663;BME280;49815;51.618;0.336;2022-09-13T10:24:33;100350.39;;;20.42;42.91
63663;BME280;49815;51.618;0.336;2022-09-13T10:26:58;100343.15;;;20.64;42.86
63663;BME280;49815;51.618;0.336;2022-09-13T10:29:23;100347.31;;;20.55;42.49
63663;BME280;49815;51.618;0.336;2022-09-13T10:31:50;100348.79;;;21.89;40.77
63663;BME280;49815;51.618;0.336;2022-09-13T10:34:17;100354.75;;;22.17;39.64
63663;BME280;49815;51.618;0.336;2022-09-13T10:36:48;100356.76;;;22.52;39.06
63663;BME280;49815;51.618;0.336;2022-09-13T10:39:06;100365.49;;;22.66;38.26
63663;BME280;49815;51.618;0.336;2022-09-13T10:41:32;100374.57;;;21.75;39.12
63663;BME280;49815;51.618;0.336;2022-09-13T10:43:57;100382.26;;;22.56;38.45
63663;BME280;49815;51.618;0.336;2022-09-13T10:46:22;100392.19;;;22.56;38.21
63663;BME280;49815;51.618;0.336;2022-09-13T10:48:46;100402.33;;;20.98;40.35
63663;BME280;49815;51.618;0.336;2022-09-13T10:51:20;100402.63;;;22.10;38.76
63663;BME280;49815;51.618;0.336;2022-09-13T10:53:38;100405.25;;;22.04;38.85
63663;BME280;49815;51.618;0.336;2022-09-13T10:56:01;100412.26;;;21.68;39.36
63663;BME280;49815;51.618;0.336;2022-09-13T10:58:27;100413.08;;;21.53;40.06
63663;BME280;49815;51.618;0.336;2022-09-13T11:01:09;100414.05;;;22.65;39.29
63663;BME280;49815;51.618;0.336;2022-09-13T11:03:25;100412.33;;;23.22;37.73
63663;BME280;49815;51.618;0.336;2022-09-13T11:05:46;100410.24;;;23.17;37.10
63663;BME280;49815;51.618;0.336;2022-09-13T11:08:18;100411.91;;;23.20;37.00
63663;BME280;49815;51.618;0.336;2022-09-13T11:10:35;100410.07;;;23.45;36.87
63663;BME280;49815;51.618;0.336;2022-09-13T11:13:04;100408.17;;;23.55;36.81
63663;BME280;49815;51.618;0.336;2022-09-13T11:15:32;100410.12;;;24.05;36.34
63663;BME280;49815;51.618;0.336;2022-09-13T11:17:57;100408.27;;;24.25;35.98
63663;BME280;49815;51.618;0.336;2022-09-13T11:20:20;100410.22;;;24.58;36.33
63663;BME280;49815;51.618;0.336;2022-09-13T11:22:51;100411.99;;;24.09;35.29
63663;BME280;49815;51.618;0.336;2022-09-13T11:25:12;100411.70;;;23.34;36.52
63663;BME280;49815;51.618;0.336;2022-09-13T11:27:34;100409.68;;;23.69;36.71
63663;BME280;49815;51.618;0.336;2022-09-13T11:30:06;100408.58;;;24.22;36.06
63663;BME280;49815;51.618;0.336;2022-09-13T11:32:28;100410.66;;;24.17;35.56
63663;BME280;49815;51.618;0.336;2022-09-13T11:34:51;100411.40;;;24.23;35.70
63663;BME280;49815;51.618;0.336;2022-09-13T11:39:37;100409.88;;;24.00;35.37
63663;BME280;49815;51.618;0.336;2022-09-13T11:42:09;100414.45;;;24.44;35.58
63663;BME280;49815;51.618;0.336;2022-09-13T11:44:35;100414.49;;;24.44;35.49
63663;BME280;49815;51.618;0.336;2022-09-13T11:46:54;100409.60;;;24.44;35.45
63663;BME280;49815;51.618;0.336;2022-09-13T11:49:31;100409.79;;;24.68;35.89
63663;BME280;49815;51.618;0.336;2022-09-13T11:51:48;100415.29;;;23.41;35.80
63663;BME280;49815;51.618;0.336;2022-09-13T11:54:15;100416.75;;;23.70;35.42
63663;BME280;49815;51.618;0.336;2022-09-13T11:56:33;100417.05;;;23.63;36.72
63663;BME280;49815;51.618;0.336;2022-09-13T11:58:57;100415.05;;;24.42;35.61
63663;BME280;49815;51.618;0.336;2022-09-13T12:01:22;100405.50;;;24.72;35.24
63663;BME280;49815;51.618;0.336;2022-09-13T12:03:50;100404.72;;;24.91;35.70
63663;BME280;49815;51.618;0.336;2022-09-13T12:06:14;100406.48;;;25.54;35.69
63663;BME280;49815;51.618;0.336;2022-09-13T12:08:37;100407.16;;;25.41;34.38
63663;BME280;49815;51.618;0.336;2022-09-13T12:11:03;100408.84;;;25.13;35.00
63663;BME280;49815;51.618;0.336;2022-09-13T12:13:28;100410.35;;;25.65;34.39
63663;BME280;49815;51.618;0.336;2022-09-13T12:15:52;100409.45;;;25.60;34.54
63663;BME280;49815;51.618;0.336;2022-09-13T12:18:18;100412.64;;;25.90;33.97
63663;BME280;49815;51.618;0.336;2022-09-13T12:20:42;100413.29;;;25.57;34.35
63663;BME280;49815;51.618;0.336;2022-09-13T12:23:10;100411.31;;;25.80;34.64
63663;BME280;49815;51.618;0.336;2022-09-13T12:25:37;100408.42;;;25.22;34.47
63663;BME280;49815;51.618;0.336;2022-09-13T12:28:01;100408.97;;;25.47;34.56
63663;BME280;49815;51.618;0.336;2022-09-13T12:30:21;100407.68;;;25.70;34.47
63663;BME280;49815;51.618;0.336;2022-09-13T12:32:45;100407.15;;;25.77;34.34
63663;BME280;49815;51.618;0.336;2022-09-13T12:35:17;100407.05;;;25.71;34.99
63663;BME280;49815;51.618;0.336;2022-09-13T12:37:48;100401.52;;;25.40;36.09
63663;BME280;49815;51.618;0.336;2022-09-13T12:40:10;100403.70;;;25.49;34.96
63663;BME280;49815;51.618;0.336;2022-09-13T12:42:35;100403.91;;;25.87;34.78
63663;BME280;49815;51.618;0.336;2022-09-13T12:45:00;100401.51;;;25.71;35.46
63663;BME280;49815;51.618;0.336;2022-09-13T12:47:34;100396.85;;;25.65;34.66
63663;BME280;49815;51.618;0.336;2022-09-13T12:49:52;100397.07;;;25.43;35.15